sensor_id;sensor_type;location;lat;lon;timestamp;temperature;humidity
22706;DHT22;11520;51.198;4.468;2022-07-23T00:00:06;17.70;99.90
22706;DHT22;11520;51.198;4.468;2022-07-23T00:02:33;17.70;99.90
22706;DHT22;11520;51.198;4.468;2022-07-23T00:04:59;17.70;99.90
22706;DHT22;11520;51.198;4.468;2022-07-23T00:07:28;17.80;99.90
22706;DHT22;11520;51.198;4.468;2022-07-23T00:09:54;17.70;99.90
22706;DHT22;11520;51.198;4.468;2022-07-23T00:12:21;17.70;99.90
22706;DHT22;11520;51.198;4.468;2022-07-23T00:14:47;17.70;99.90
22706;DHT22;11520;51.198;4.468;2022-07-23T00:17:12;17.70;99.90
22706;DHT22;11520;51.198;4.468;2022-07-23T00:19:38;17.70;99.90
22706;DHT22;11520;51.198;4.468;2022-07-23T00:22:04;17.70;99.90
22706;DHT22;11520;51.198;4.468;2022-07-23T00:24:29;17.70;99.90
22706;DHT22;11520;51.198;4.468;2022-07-23T00:26:55;17.60;99.90
22706;DHT22;11520;51.198;4.468;2022-07-23T00:29:22;17.60;99.90
22706;DHT22;11520;51.198;4.468;2022-07-23T00:31:47;17.60;99.90
22706;DHT22;11520;51.198;4.468;2022-07-23T00:34:13;17.60;99.90
22706;DHT22;11520;51.198;4.468;2022-07-23T00:36:40;17.60;99.90
22706;DHT22;11520;51.198;4.468;2022-07-23T00:39:07;17.60;99.90
22706;DHT22;11520;51.198;4.468;2022-07-23T00:41:33;17.50;99.90
22706;DHT22;11520;51.198;4.468;2022-07-23T00:44:30;17.50;99.90
22706;DHT22;11520;51.198;4.468;2022-07-23T00:46:57;17.50;99.90
22706;DHT22;11520;51.198;4.468;2022-07-23T00:49:25;17.50;99.90
22706;DHT22;11520;51.198;4.468;2022-07-23T00:51:52;17.60;99.90
22706;DHT22;11520;51.198;4.468;2022-07-23T00:54:21;17.60;99.90
22706;DHT22;11520;51.198;4.468;2022-07-23T00:56:47;17.50;99.90
22706;DHT22;11520;51.198;4.468;2022-07-23T00:59:13;17.50;99.90
22706;DHT22;11520;51.198;4.468;2022-07-23T01:01:39;17.50;99.90
22706;DHT22;11520;51.198;4.468;2022-07-23T01:04:05;17.40;99.90
22706;DHT22;11520;51.198;4.468;2022-07-23T01:06:36;17.40;99.90
22706;DHT22;11520;51.198;4.468;2022-07-23T01:09:04;17.40;99.90
22706;DHT22;11520;51.198;4.468;2022-07-23T01:11:34;17.40;99.90
22706;DHT22;11520;51.198;4.468;2022-07-23T01:14:08;17.30;99.90
22706;DHT22;11520;51.198;4.468;2022-07-23T01:16:35;17.30;99.90
22706;DHT22;11520;51.198;4.468;2022-07-23T01:19:00;17.20;99.90
22706;DHT22;11520;51.198;4.468;2022-07-23T01:21:26;17.20;99.90
22706;DHT22;11520;51.198;4.468;2022-07-23T01:23:52;17.30;99.90
22706;DHT22;11520;51.198;4.468;2022-07-23T01:26:18;17.30;99.90
22706;DHT22;11520;51.198;4.468;2022-07-23T01:28:44;17.30;99.90
22706;DHT22;11520;51.198;4.468;2022-07-23T01:31:10;17.20;99.90
22706;DHT22;11520;51.198;4.468;2022-07-23T01:33:36;17.20;99.90
22706;DHT22;11520;51.198;4.468;2022-07-23T01:36:03;17.20;99.90
22706;DHT22;11520;51.198;4.468;2022-07-23T01:38:30;17.10;99.90
22706;DHT22;11520;51.198;4.468;2022-07-23T01:40:56;17.10;99.90
22706;DHT22;11520;51.198;4.468;2022-07-23T01:43:22;17.10;99.90
22706;DHT22;11520;51.198;4.468;2022-07-23T01:45:49;17.10;99.90
22706;DHT22;11520;51.198;4.468;2022-07-23T01:48:15;17.10;99.90
22706;DHT22;11520;51.198;4.468;2022-07-23T01:50:41;16.90;99.90
22706;DHT22;11520;51.198;4.468;2022-07-23T01:53:07;16.80;99.90
22706;DHT22;11520;51.198;4.468;2022-07-23T01:55:33;16.90;99.90
22706;DHT22;11520;51.198;4.468;2022-07-23T01:57:59;16.90;99.90
22706;DHT22;11520;51.198;4.468;2022-07-23T02:00:25;16.90;99.90
22706;DHT22;11520;51.198;4.468;2022-07-23T02:02:50;17.00;99.90
22706;DHT22;11520;51.198;4.468;2022-07-23T02:05:16;16.90;99.90
22706;DHT22;11520;51.198;4.468;2022-07-23T02:07:41;17.00;99.90
22706;DHT22;11520;51.198;4.468;2022-07-23T02:10:08;17.00;99.90
22706;DHT22;11520;51.198;4.468;2022-07-23T02:12:33;16.90;99.90
22706;DHT22;11520;51.198;4.468;2022-07-23T02:14:59;16.90;99.90
22706;DHT22;11520;51.198;4.468;2022-07-23T02:17:24;16.90;99.90
22706;DHT22;11520;51.198;4.468;2022-07-23T02:19:51;16.90;99.90
22706;DHT22;11520;51.198;4.468;2022-07-23T02:22:18;16.90;99.90
22706;DHT22;11520;51.198;4.468;2022-07-23T02:24:43;16.90;99.90
22706;DHT22;11520;51.198;4.468;2022-07-23T02:27:09;16.90;99.90
22706;DHT22;11520;51.198;4.468;2022-07-23T02:29:36;16.80;99.90
22706;DHT22;11520;51.198;4.468;2022-07-23T02:32:02;16.80;99.90
22706;DHT22;11520;51.198;4.468;2022-07-23T02:34:28;16.80;99.90
22706;DHT22;11520;51.198;4.468;2022-07-23T02:36:54;16.70;99.90
22706;DHT22;11520;51.198;4.468;2022-07-23T02:39:19;16.70;99.90
22706;DHT22;11520;51.198;4.468;2022-07-23T02:41:45;16.70;99.90
22706;DHT22;11520;51.198;4.468;2022-07-23T02:44:10;16.70;99.90
22706;DHT22;11520;51.198;4.468;2022-07-23T02:46:36;16.70;99.90
22706;DHT22;11520;51.198;4.468;2022-07-23T02:49:02;16.60;99.90
22706;DHT22;11520;51.198;4.468;2022-07-23T02:51:30;16.60;99.90
22706;DHT22;11520;51.198;4.468;2022-07-23T02:53:55;16.60;99.90
22706;DHT22;11520;51.198;4.468;2022-07-23T02:56:23;16.50;99.90
22706;DHT22;11520;51.198;4.468;2022-07-23T02:58:50;16.60;99.90
22706;DHT22;11520;51.198;4.468;2022-07-23T03:01:18;16.60;99.90
22706;DHT22;11520;51.198;4.468;2022-07-23T03:03:44;16.60;99.90
22706;DHT22;11520;51.198;4.468;2022-07-23T03:06:09;16.60;99.90
22706;DHT22;11520;51.198;4.468;2022-07-23T03:08:35;16.60;99.90
22706;DHT22;11520;51.198;4.468;2022-07-23T03:11:01;16.60;99.90
22706;DHT22;11520;51.198;4.468;2022-07-23T03:13:26;16.60;99.90
22706;DHT22;11520;51.198;4.468;2022-07-23T03:15:52;16.40;99.90
22706;DHT22;11520;51.198;4.468;2022-07-23T03:18:18;16.40;99.90
22706;DHT22;11520;51.198;4.468;2022-07-23T03:20:44;16.40;99.90
22706;DHT22;11520;51.198;4.468;2022-07-23T03:23:09;16.40;99.90
22706;DHT22;11520;51.198;4.468;2022-07-23T03:25:36;16.40;99.90
22706;DHT22;11520;51.198;4.468;2022-07-23T03:28:02;16.40;99.90
22706;DHT22;11520;51.198;4.468;2022-07-23T03:30:28;16.40;99.90
22706;DHT22;11520;51.198;4.468;2022-07-23T03:32:54;16.40;99.90
22706;DHT22;11520;51.198;4.468;2022-07-23T03:35:20;16.40;99.90
22706;DHT22;11520;51.198;4.468;2022-07-23T03:37:46;16.40;99.90
22706;DHT22;11520;51.198;4.468;2022-07-23T03:40:12;16.40;99.90
22706;DHT22;11520;51.198;4.468;2022-07-23T03:42:37;16.40;99.90
22706;DHT22;11520;51.198;4.468;2022-07-23T03:45:05;16.40;99.90
22706;DHT22;11520;51.198;4.468;2022-07-23T03:47:33;16.50;99.90
22706;DHT22;11520;51.198;4.468;2022-07-23T03:49:59;16.50;99.90
22706;DHT22;11520;51.198;4.468;2022-07-23T03:52:25;16.40;99.90
22706;DHT22;11520;51.198;4.468;2022-07-23T03:54:50;16.40;99.90
22706;DHT22;11520;51.198;4.468;2022-07-23T03:57:16;16.40;99.90
22706;DHT22;11520;51.198;4.468;2022-07-23T03:59:42;16.40;99.90
22706;DHT22;11520;51.198;4.468;2022-07-23T04:02:07;16.40;99.90
22706;DHT22;11520;51.198;4.468;2022-07-23T04:04:34;16.40;99.90
22706;DHT22;11520;51.198;4.468;2022-07-23T04:06:59;16.40;99.90
22706;DHT22;11520;51.198;4.468;2022-07-23T04:09:26;16.30;99.90
22706;DHT22;11520;51.198;4.468;2022-07-23T04:11:52;16.40;99.90
22706;DHT22;11520;51.198;4.468;2022-07-23T04:14:17;16.40;99.90
22706;DHT22;11520;51.198;4.468;2022-07-23T04:16:45;16.50;99.90
22706;DHT22;11520;51.198;4.468;2022-07-23T04:19:11;16.50;99.90
22706;DHT22;11520;51.198;4.468;2022-07-23T04:21:38;16.60;99.90
22706;DHT22;11520;51.198;4.468;2022-07-23T04:24:04;16.50;99.90
22706;DHT22;11520;51.198;4.468;2022-07-23T04:26:31;16.50;99.90
22706;DHT22;11520;51.198;4.468;2022-07-23T04:28:56;16.60;99.90
22706;DHT22;11520;51.198;4.468;2022-07-23T04:31:22;16.60;99.90
22706;DHT22;11520;51.198;4.468;2022-07-23T04:33:48;16.70;99.90
22706;DHT22;11520;51.198;4.468;2022-07-23T04:36:13;16.70;99.90
22706;DHT22;11520;51.198;4.468;2022-07-23T04:38:39;16.80;99.90
22706;DHT22;11520;51.198;4.468;2022-07-23T04:41:06;16.90;99.90
22706;DHT22;11520;51.198;4.468;2022-07-23T04:43:31;17.00;99.90
22706;DHT22;11520;51.198;4.468;2022-07-23T04:45:57;17.10;99.90
22706;DHT22;11520;51.198;4.468;2022-07-23T04:48:23;17.20;99.90
22706;DHT22;11520;51.198;4.468;2022-07-23T04:50:48;17.20;99.90
22706;DHT22;11520;51.198;4.468;2022-07-23T04:53:14;17.30;99.90
22706;DHT22;11520;51.198;4.468;2022-07-23T04:55:40;17.40;99.90
22706;DHT22;11520;51.198;4.468;2022-07-23T04:58:05;17.50;99.90
22706;DHT22;11520;51.198;4.468;2022-07-23T05:00:33;17.60;99.90
22706;DHT22;11520;51.198;4.468;2022-07-23T05:02:58;17.70;99.90
22706;DHT22;11520;51.198;4.468;2022-07-23T05:05:24;17.80;99.90
22706;DHT22;11520;51.198;4.468;2022-07-23T05:07:50;17.90;99.90
22706;DHT22;11520;51.198;4.468;2022-07-23T05:10:15;18.00;99.90
22706;DHT22;11520;51.198;4.468;2022-07-23T05:12:42;18.10;99.90
22706;DHT22;11520;51.198;4.468;2022-07-23T05:15:08;18.20;99.90
22706;DHT22;11520;51.198;4.468;2022-07-23T05:17:33;18.50;99.90
22706;DHT22;11520;51.198;4.468;2022-07-23T05:19:59;19.30;99.90
22706;DHT22;11520;51.198;4.468;2022-07-23T05:22:24;20.50;99.90
22706;DHT22;11520;51.198;4.468;2022-07-23T05:24:50;21.80;99.90
22706;DHT22;11520;51.198;4.468;2022-07-23T05:27:16;23.40;99.90
22706;DHT22;11520;51.198;4.468;2022-07-23T05:29:41;24.80;99.90
22706;DHT22;11520;51.198;4.468;2022-07-23T05:32:07;25.80;99.90
22706;DHT22;11520;51.198;4.468;2022-07-23T05:34:35;27.00;99.90
22706;DHT22;11520;51.198;4.468;2022-07-23T05:37:01;28.10;99.90
22706;DHT22;11520;51.198;4.468;2022-07-23T05:39:27;28.90;97.50
22706;DHT22;11520;51.198;4.468;2022-07-23T05:41:52;29.50;94.00
22706;DHT22;11520;51.198;4.468;2022-07-23T05:44:18;30.40;92.70
22706;DHT22;11520;51.198;4.468;2022-07-23T05:46:44;31.20;88.60
22706;DHT22;11520;51.198;4.468;2022-07-23T05:49:10;31.60;83.00
22706;DHT22;11520;51.198;4.468;2022-07-23T05:51:35;32.10;79.80
22706;DHT22;11520;51.198;4.468;2022-07-23T05:54:01;32.70;76.80
22706;DHT22;11520;51.198;4.468;2022-07-23T05:56:27;33.10;73.10
22706;DHT22;11520;51.198;4.468;2022-07-23T05:58:54;33.50;68.40
22706;DHT22;11520;51.198;4.468;2022-07-23T06:01:20;33.60;69.40
22706;DHT22;11520;51.198;4.468;2022-07-23T06:03:47;34.30;65.60
22706;DHT22;11520;51.198;4.468;2022-07-23T06:06:12;34.80;63.80
22706;DHT22;11520;51.198;4.468;2022-07-23T06:08:48;35.40;61.40
22706;DHT22;11520;51.198;4.468;2022-07-23T06:11:13;35.30;59.00
22706;DHT22;11520;51.198;4.468;2022-07-23T06:13:42;35.50;58.20
22706;DHT22;11520;51.198;4.468;2022-07-23T06:16:08;36.20;57.40
22706;DHT22;11520;51.198;4.468;2022-07-23T06:18:34;36.50;55.60
22706;DHT22;11520;51.198;4.468;2022-07-23T06:20:59;36.60;54.50
22706;DHT22;11520;51.198;4.468;2022-07-23T06:23:30;36.90;53.70
22706;DHT22;11520;51.198;4.468;2022-07-23T06:25:56;37.30;52.60
22706;DHT22;11520;51.198;4.468;2022-07-23T06:28:21;37.70;51.60
22706;DHT22;11520;51.198;4.468;2022-07-23T06:30:47;38.20;50.70
22706;DHT22;11520;51.198;4.468;2022-07-23T06:33:13;38.70;49.30
22706;DHT22;11520;51.198;4.468;2022-07-23T06:35:39;39.10;47.70
22706;DHT22;11520;51.198;4.468;2022-07-23T06:38:05;39.60;46.50
22706;DHT22;11520;51.198;4.468;2022-07-23T06:40:31;40.10;45.30
22706;DHT22;11520;51.198;4.468;2022-07-23T06:42:56;40.40;43.50
22706;DHT22;11520;51.198;4.468;2022-07-23T06:45:24;40.40;43.00
22706;DHT22;11520;51.198;4.468;2022-07-23T06:47:50;40.90;43.10
22706;DHT22;11520;51.198;4.468;2022-07-23T06:50:16;41.20;41.40
22706;DHT22;11520;51.198;4.468;2022-07-23T06:52:41;41.70;40.60
22706;DHT22;11520;51.198;4.468;2022-07-23T06:55:07;41.90;39.60
22706;DHT22;11520;51.198;4.468;2022-07-23T06:57:33;42.30;39.20
22706;DHT22;11520;51.198;4.468;2022-07-23T06:59:59;41.60;38.80
22706;DHT22;11520;51.198;4.468;2022-07-23T07:02:28;41.60;39.00
22706;DHT22;11520;51.198;4.468;2022-07-23T07:04:57;41.90;38.90
22706;DHT22;11520;51.198;4.468;2022-07-23T07:07:22;42.10;38.40
22706;DHT22;11520;51.198;4.468;2022-07-23T07:09:48;42.60;37.30
22706;DHT22;11520;51.198;4.468;2022-07-23T07:12:15;42.70;36.70
22706;DHT22;11520;51.198;4.468;2022-07-23T07:14:40;42.80;35.90
22706;DHT22;11520;51.198;4.468;2022-07-23T07:17:06;39.70;38.40
22706;DHT22;11520;51.198;4.468;2022-07-23T07:19:32;39.90;38.70
22706;DHT22;11520;51.198;4.468;2022-07-23T07:21:57;39.50;38.30
22706;DHT22;11520;51.198;4.468;2022-07-23T07:24:24;40.20;39.50
22706;DHT22;11520;51.198;4.468;2022-07-23T07:26:49;41.00;37.90
22706;DHT22;11520;51.198;4.468;2022-07-23T07:29:15;41.40;38.20
22706;DHT22;11520;51.198;4.468;2022-07-23T07:31:42;41.60;37.20
22706;DHT22;11520;51.198;4.468;2022-07-23T07:34:07;40.80;37.30
22706;DHT22;11520;51.198;4.468;2022-07-23T07:36:34;40.90;38.00
22706;DHT22;11520;51.198;4.468;2022-07-23T07:39:03;41.30;37.30
22706;DHT22;11520;51.198;4.468;2022-07-23T07:41:30;40.40;38.50
22706;DHT22;11520;51.198;4.468;2022-07-23T07:43:56;41.10;38.30
22706;DHT22;11520;51.198;4.468;2022-07-23T07:46:22;41.70;37.30
22706;DHT22;11520;51.198;4.468;2022-07-23T07:48:50;40.00;36.90
22706;DHT22;11520;51.198;4.468;2022-07-23T07:51:16;39.50;39.60
22706;DHT22;11520;51.198;4.468;2022-07-23T07:53:42;40.50;38.60
22706;DHT22;11520;51.198;4.468;2022-07-23T07:56:07;41.60;37.50
22706;DHT22;11520;51.198;4.468;2022-07-23T07:58:33;42.70;36.30
22706;DHT22;11520;51.198;4.468;2022-07-23T08:01:00;42.60;35.90
22706;DHT22;11520;51.198;4.468;2022-07-23T08:03:26;42.70;34.70
22706;DHT22;11520;51.198;4.468;2022-07-23T08:05:52;42.60;34.80
22706;DHT22;11520;51.198;4.468;2022-07-23T08:08:18;42.10;35.30
22706;DHT22;11520;51.198;4.468;2022-07-23T08:10:44;41.90;35.40
22706;DHT22;11520;51.198;4.468;2022-07-23T08:13:14;41.90;35.60
22706;DHT22;11520;51.198;4.468;2022-07-23T08:15:43;42.20;34.60
22706;DHT22;11520;51.198;4.468;2022-07-23T08:18:09;41.90;34.30
22706;DHT22;11520;51.198;4.468;2022-07-23T08:20:35;42.00;34.70
22706;DHT22;11520;51.198;4.468;2022-07-23T08:23:06;41.90;33.80
22706;DHT22;11520;51.198;4.468;2022-07-23T08:25:35;42.50;34.40
22706;DHT22;11520;51.198;4.468;2022-07-23T08:28:03;42.70;34.40
22706;DHT22;11520;51.198;4.468;2022-07-23T08:30:31;43.40;33.60
22706;DHT22;11520;51.198;4.468;2022-07-23T08:32:59;44.20;33.30
22706;DHT22;11520;51.198;4.468;2022-07-23T08:35:28;44.90;32.50
22706;DHT22;11520;51.198;4.468;2022-07-23T08:37:55;44.20;31.80
22706;DHT22;11520;51.198;4.468;2022-07-23T08:40:21;42.70;33.00
22706;DHT22;11520;51.198;4.468;2022-07-23T08:42:49;41.10;33.30
22706;DHT22;11520;51.198;4.468;2022-07-23T08:45:17;41.20;34.90
22706;DHT22;11520;51.198;4.468;2022-07-23T08:47:44;42.50;33.10
22706;DHT22;11520;51.198;4.468;2022-07-23T08:50:12;43.50;32.10
22706;DHT22;11520;51.198;4.468;2022-07-23T08:52:38;44.20;30.40
22706;DHT22;11520;51.198;4.468;2022-07-23T08:55:05;42.10;33.50
22706;DHT22;11520;51.198;4.468;2022-07-23T08:57:39;42.70;33.30
22706;DHT22;11520;51.198;4.468;2022-07-23T09:00:29;43.70;32.50
22706;DHT22;11520;51.198;4.468;2022-07-23T09:06:21;41.70;33.70
22706;DHT22;11520;51.198;4.468;2022-07-23T09:08:48;41.70;33.10
22706;DHT22;11520;51.198;4.468;2022-07-23T09:11:16;42.20;33.00
22706;DHT22;11520;51.198;4.468;2022-07-23T09:13:49;42.90;32.40
22706;DHT22;11520;51.198;4.468;2022-07-23T09:16:30;42.40;31.50
22706;DHT22;11520;51.198;4.468;2022-07-23T09:18:57;41.90;32.80
22706;DHT22;11520;51.198;4.468;2022-07-23T09:21:29;42.60;32.40
22706;DHT22;11520;51.198;4.468;2022-07-23T09:23:56;43.70;31.70
22706;DHT22;11520;51.198;4.468;2022-07-23T09:29:23;44.30;29.10
22706;DHT22;11520;51.198;4.468;2022-07-23T09:32:02;44.60;29.80
22706;DHT22;11520;51.198;4.468;2022-07-23T09:34:35;41.20;31.00
22706;DHT22;11520;51.198;4.468;2022-07-23T09:37:17;40.00;34.60
22706;DHT22;11520;51.198;4.468;2022-07-23T09:39:45;40.50;33.90
22706;DHT22;11520;51.198;4.468;2022-07-23T09:42:17;42.10;32.90
22706;DHT22;11520;51.198;4.468;2022-07-23T09:44:47;42.80;30.80
22706;DHT22;11520;51.198;4.468;2022-07-23T09:47:16;38.90;33.90
22706;DHT22;11520;51.198;4.468;2022-07-23T09:53:37;41.50;32.80
22706;DHT22;11520;51.198;4.468;2022-07-23T09:56:02;40.30;31.80
22706;DHT22;11520;51.198;4.468;2022-07-23T09:58:29;41.30;32.20
22706;DHT22;11520;51.198;4.468;2022-07-23T10:00:56;42.80;30.70
22706;DHT22;11520;51.198;4.468;2022-07-23T10:03:23;44.20;29.70
22706;DHT22;11520;51.198;4.468;2022-07-23T10:05:50;41.60;29.40
22706;DHT22;11520;51.198;4.468;2022-07-23T10:08:18;40.20;31.90
22706;DHT22;11520;51.198;4.468;2022-07-23T10:10:46;40.90;31.20
22706;DHT22;11520;51.198;4.468;2022-07-23T10:13:11;42.40;30.40
22706;DHT22;11520;51.198;4.468;2022-07-23T10:16:08;43.50;29.40
22706;DHT22;11520;51.198;4.468;2022-07-23T10:18:35;44.50;29.00
22706;DHT22;11520;51.198;4.468;2022-07-23T10:21:06;44.20;28.40
22706;DHT22;11520;51.198;4.468;2022-07-23T10:23:48;42.50;28.90
22706;DHT22;11520;51.198;4.468;2022-07-23T10:26:21;39.10;31.40
22706;DHT22;11520;51.198;4.468;2022-07-23T10:31:58;40.00;32.00
22706;DHT22;11520;51.198;4.468;2022-07-23T10:34:44;42.00;30.50
22706;DHT22;11520;51.198;4.468;2022-07-23T10:40:15;44.30;28.20
22706;DHT22;11520;51.198;4.468;2022-07-23T10:42:46;45.40;27.60
22706;DHT22;11520;51.198;4.468;2022-07-23T10:47:54;46.70;26.50
22706;DHT22;11520;51.198;4.468;2022-07-23T10:50:26;47.10;26.20
22706;DHT22;11520;51.198;4.468;2022-07-23T10:53:09;47.80;25.60
22706;DHT22;11520;51.198;4.468;2022-07-23T10:58:04;48.40;25.00
22706;DHT22;11520;51.198;4.468;2022-07-23T11:00:31;48.80;24.70
22706;DHT22;11520;51.198;4.468;2022-07-23T11:02:58;48.60;23.80
22706;DHT22;11520;51.198;4.468;2022-07-23T11:05:26;44.10;25.50
22706;DHT22;11520;51.198;4.468;2022-07-23T11:32:31;43.70;26.10
22706;DHT22;11520;51.198;4.468;2022-07-23T11:35:00;43.20;27.20
22706;DHT22;11520;51.198;4.468;2022-07-23T11:37:35;41.80;27.60
22706;DHT22;11520;51.198;4.468;2022-07-23T11:40:20;42.30;27.40
22706;DHT22;11520;51.198;4.468;2022-07-23T11:46:09;41.40;27.40
22706;DHT22;11520;51.198;4.468;2022-07-23T11:48:35;39.20;28.80
22706;DHT22;11520;51.198;4.468;2022-07-23T11:51:03;39.40;29.60
22706;DHT22;11520;51.198;4.468;2022-07-23T11:53:32;39.60;29.80
22706;DHT22;11520;51.198;4.468;2022-07-23T11:56:04;37.80;30.60
22706;DHT22;11520;51.198;4.468;2022-07-23T11:58:30;38.40;32.30
22706;DHT22;11520;51.198;4.468;2022-07-23T12:00:56;38.60;31.00
22706;DHT22;11520;51.198;4.468;2022-07-23T12:03:22;39.10;31.10
22706;DHT22;11520;51.198;4.468;2022-07-23T12:05:48;39.60;30.00
22706;DHT22;11520;51.198;4.468;2022-07-23T12:08:15;39.60;30.00
22706;DHT22;11520;51.198;4.468;2022-07-23T12:10:42;39.60;30.00
22706;DHT22;11520;51.198;4.468;2022-07-23T12:13:13;39.50;29.80
22706;DHT22;11520;51.198;4.468;2022-07-23T12:15:45;38.30;31.00
22706;DHT22;11520;51.198;4.468;2022-07-23T12:18:14;38.40;32.30
22706;DHT22;11520;51.198;4.468;2022-07-23T12:20:45;37.10;32.50
22706;DHT22;11520;51.198;4.468;2022-07-23T12:23:13;34.60;37.40
22706;DHT22;11520;51.198;4.468;2022-07-23T12:25:41;34.00;38.10
22706;DHT22;11520;51.198;4.468;2022-07-23T12:28:11;34.10;38.20
22706;DHT22;11520;51.198;4.468;2022-07-23T12:30:43;34.10;38.30
22706;DHT22;11520;51.198;4.468;2022-07-23T12:33:13;32.80;40.00
22706;DHT22;11520;51.198;4.468;2022-07-23T12:35:45;31.30;42.30
22706;DHT22;11520;51.198;4.468;2022-07-23T12:38:18;30.70;44.20
22706;DHT22;11520;51.198;4.468;2022-07-23T12:40:44;30.50;43.60
22706;DHT22;11520;51.198;4.468;2022-07-23T12:43:27;30.20;43.60
22706;DHT22;11520;51.198;4.468;2022-07-23T12:45:54;30.60;44.00
22706;DHT22;11520;51.198;4.468;2022-07-23T12:51:02;29.20;49.00
22706;DHT22;11520;51.198;4.468;2022-07-23T12:53:43;28.80;49.50
22706;DHT22;11520;51.198;4.468;2022-07-23T12:56:11;28.30;49.80
22706;DHT22;11520;51.198;4.468;2022-07-23T12:58:53;28.40;49.80
22706;DHT22;11520;51.198;4.468;2022-07-23T13:04:05;28.40;51.00
22706;DHT22;11520;51.198;4.468;2022-07-23T13:06:55;28.60;49.90
22706;DHT22;11520;51.198;4.468;2022-07-23T13:09:27;28.80;49.70
22706;DHT22;11520;51.198;4.468;2022-07-23T13:11:55;29.10;49.20
22706;DHT22;11520;51.198;4.468;2022-07-23T13:14:27;29.10;48.90
22706;DHT22;11520;51.198;4.468;2022-07-23T13:16:59;29.10;49.50
22706;DHT22;11520;51.198;4.468;2022-07-23T13:19:25;29.30;49.00
22706;DHT22;11520;51.198;4.468;2022-07-23T13:21:51;29.20;49.00
22706;DHT22;11520;51.198;4.468;2022-07-23T13:24:17;29.70;48.40
22706;DHT22;11520;51.198;4.468;2022-07-23T13:26:44;29.80;47.70
22706;DHT22;11520;51.198;4.468;2022-07-23T13:29:12;30.20;48.10
22706;DHT22;11520;51.198;4.468;2022-07-23T13:31:38;30.60;46.40
22706;DHT22;11520;51.198;4.468;2022-07-23T13:34:05;31.00;45.50
22706;DHT22;11520;51.198;4.468;2022-07-23T13:36:31;31.50;44.40
22706;DHT22;11520;51.198;4.468;2022-07-23T13:38:56;31.60;43.90
22706;DHT22;11520;51.198;4.468;2022-07-23T13:41:22;31.50;43.70
22706;DHT22;11520;51.198;4.468;2022-07-23T13:43:49;31.70;44.00
22706;DHT22;11520;51.198;4.468;2022-07-23T13:46:15;31.90;43.40
22706;DHT22;11520;51.198;4.468;2022-07-23T13:48:40;31.40;43.10
22706;DHT22;11520;51.198;4.468;2022-07-23T13:51:07;31.40;43.60
22706;DHT22;11520;51.198;4.468;2022-07-23T13:53:33;31.70;42.90
22706;DHT22;11520;51.198;4.468;2022-07-23T13:55:58;31.70;42.70
22706;DHT22;11520;51.198;4.468;2022-07-23T13:58:24;31.70;43.00
22706;DHT22;11520;51.198;4.468;2022-07-23T14:00:52;31.90;42.70
22706;DHT22;11520;51.198;4.468;2022-07-23T14:03:19;31.70;42.40
22706;DHT22;11520;51.198;4.468;2022-07-23T14:05:45;32.00;42.00
22706;DHT22;11520;51.198;4.468;2022-07-23T14:08:11;31.80;41.60
22706;DHT22;11520;51.198;4.468;2022-07-23T14:10:38;31.60;42.70
22706;DHT22;11520;51.198;4.468;2022-07-23T14:13:03;31.20;43.00
22706;DHT22;11520;51.198;4.468;2022-07-23T14:15:31;30.60;45.40
22706;DHT22;11520;51.198;4.468;2022-07-23T14:17:57;30.40;46.50
22706;DHT22;11520;51.198;4.468;2022-07-23T14:20:23;30.30;45.80
22706;DHT22;11520;51.198;4.468;2022-07-23T14:22:50;30.30;46.50
22706;DHT22;11520;51.198;4.468;2022-07-23T14:25:17;29.70;47.10
22706;DHT22;11520;51.198;4.468;2022-07-23T14:27:42;29.60;47.90
22706;DHT22;11520;51.198;4.468;2022-07-23T14:30:10;29.90;48.10
22706;DHT22;11520;51.198;4.468;2022-07-23T14:32:37;30.30;47.10
22706;DHT22;11520;51.198;4.468;2022-07-23T14:35:05;30.50;46.90
22706;DHT22;11520;51.198;4.468;2022-07-23T14:37:31;30.70;46.40
22706;DHT22;11520;51.198;4.468;2022-07-23T14:39:57;30.70;46.60
22706;DHT22;11520;51.198;4.468;2022-07-23T14:42:24;30.70;47.20
22706;DHT22;11520;51.198;4.468;2022-07-23T14:44:49;30.50;48.00
22706;DHT22;11520;51.198;4.468;2022-07-23T14:47:15;30.60;47.40
22706;DHT22;11520;51.198;4.468;2022-07-23T14:49:41;30.60;47.60
22706;DHT22;11520;51.198;4.468;2022-07-23T14:52:07;30.70;47.00
22706;DHT22;11520;51.198;4.468;2022-07-23T14:54:34;30.80;47.50
22706;DHT22;11520;51.198;4.468;2022-07-23T14:57:00;31.10;46.50
22706;DHT22;11520;51.198;4.468;2022-07-23T14:59:27;30.70;46.80
22706;DHT22;11520;51.198;4.468;2022-07-23T15:01:53;30.80;47.80
22706;DHT22;11520;51.198;4.468;2022-07-23T15:04:20;30.70;48.50
22706;DHT22;11520;51.198;4.468;2022-07-23T15:06:47;30.60;48.20
22706;DHT22;11520;51.198;4.468;2022-07-23T15:09:14;30.10;49.60
22706;DHT22;11520;51.198;4.468;2022-07-23T15:11:40;30.30;49.30
22706;DHT22;11520;51.198;4.468;2022-07-23T15:14:07;30.30;49.40
22706;DHT22;11520;51.198;4.468;2022-07-23T15:16:35;30.10;50.50
22706;DHT22;11520;51.198;4.468;2022-07-23T15:19:02;30.30;50.60
22706;DHT22;11520;51.198;4.468;2022-07-23T15:21:29;30.40;49.00
22706;DHT22;11520;51.198;4.468;2022-07-23T15:23:58;30.80;48.00
22706;DHT22;11520;51.198;4.468;2022-07-23T15:26:28;30.90;47.80
22706;DHT22;11520;51.198;4.468;2022-07-23T15:28:55;30.60;48.80
22706;DHT22;11520;51.198;4.468;2022-07-23T15:31:21;30.00;49.10
22706;DHT22;11520;51.198;4.468;2022-07-23T15:33:47;29.20;51.40
22706;DHT22;11520;51.198;4.468;2022-07-23T15:36:13;28.80;53.30
22706;DHT22;11520;51.198;4.468;2022-07-23T15:38:39;29.10;53.70
22706;DHT22;11520;51.198;4.468;2022-07-23T15:41:06;29.40;51.30
22706;DHT22;11520;51.198;4.468;2022-07-23T15:43:32;29.70;50.70
22706;DHT22;11520;51.198;4.468;2022-07-23T15:46:00;30.10;50.50
22706;DHT22;11520;51.198;4.468;2022-07-23T15:48:26;30.30;49.60
22706;DHT22;11520;51.198;4.468;2022-07-23T15:50:51;30.40;49.60
22706;DHT22;11520;51.198;4.468;2022-07-23T15:53:18;30.50;49.50
22706;DHT22;11520;51.198;4.468;2022-07-23T15:59:07;30.20;50.00
22706;DHT22;11520;51.198;4.468;2022-07-23T16:11:47;30.10;50.30
22706;DHT22;11520;51.198;4.468;2022-07-23T16:14:19;30.20;50.70
22706;DHT22;11520;51.198;4.468;2022-07-23T16:16:47;30.20;49.70
22706;DHT22;11520;51.198;4.468;2022-07-23T16:19:16;30.20;49.60
22706;DHT22;11520;51.198;4.468;2022-07-23T16:22:11;30.30;50.20
22706;DHT22;11520;51.198;4.468;2022-07-23T16:24:41;30.30;50.50
22706;DHT22;11520;51.198;4.468;2022-07-23T16:27:07;29.90;51.40
22706;DHT22;11520;51.198;4.468;2022-07-23T16:29:34;29.60;51.60
22706;DHT22;11520;51.198;4.468;2022-07-23T16:32:01;29.30;51.90
22706;DHT22;11520;51.198;4.468;2022-07-23T16:34:26;29.20;53.10
22706;DHT22;11520;51.198;4.468;2022-07-23T16:36:52;29.30;52.70
22706;DHT22;11520;51.198;4.468;2022-07-23T16:39:19;29.40;52.20